createdAt,value
2016-06-10T08:27:44.591Z,38.89
2016-06-10T08:28:44.532Z,37.63
2016-06-10T08:29:44.503Z,36.38
2016-06-10T08:30:44.694Z,36.57
2016-06-10T08:31:44.573Z,36.84
2016-06-10T08:32:44.544Z,37.81
2016-06-10T08:33:44.453Z,37.32
2016-06-10T08:34:44.409Z,37.32
2016-06-10T08:35:44.413Z,37.42
2016-06-10T08:36:44.354Z,37.32
2016-06-10T08:37:44.403Z,37.62
2016-06-10T08:38:44.328Z,37.32
2016-06-10T08:39:44.191Z,37.62
2016-06-10T08:40:44.287Z,37.52
2016-06-10T08:41:44.479Z,37.42
2016-06-10T08:42:44.403Z,37.63
2016-06-10T08:43:44.250Z,37.54
2016-06-10T08:44:44.206Z,37.44
2016-06-10T08:45:44.224Z,37.32
2016-06-10T08:46:44.416Z,37.34
2016-06-10T08:47:44.372Z,37.05
2016-06-10T08:48:43.984Z,37.23
2016-06-10T08:49:44.159Z,36.76
2016-06-10T08:50:44.178Z,36.57
2016-06-10T08:51:44.087Z,36.28
2016-06-10T08:52:44.184Z,36.16
2016-06-10T08:53:44.124Z,36.76
2016-06-10T08:54:44.097Z,36.96
2016-06-10T08:55:44.022Z,36.66
2016-06-10T08:56:43.961Z,36.47
2016-06-10T08:57:44.028Z,36.76
2016-06-10T08:58:43.953Z,36.28
2016-06-10T08:59:44.034Z,36.47
2016-06-10T09:00:44.396Z,36.66
2016-06-10T09:01:44.102Z,36.38
2016-06-10T09:02:43.871Z,36.66
2016-06-10T09:03:44.015Z,36.47
2016-06-10T09:04:44.002Z,36.28
2016-06-10T09:05:43.694Z,36.47
2016-06-10T09:06:43.868Z,36.76
2016-06-10T09:07:46.777Z,36.47
2016-06-10T09:08:43.780Z,35.89
2016-06-10T09:09:43.783Z,35.7
2016-06-10T09:10:43.770Z,36.38
2016-06-10T09:11:43.898Z,36.28
2016-06-10T09:12:43.979Z,36.76
2016-06-10T09:13:43.811Z,36.76
2016-06-10T09:14:43.642Z,36.76
2016-06-10T09:15:43.644Z,36.76
2016-06-10T09:16:43.648Z,36.57
2016-06-10T09:17:43.651Z,36.57
2016-06-10T09:18:43.608Z,36.86
2016-06-10T09:19:43.626Z,37.24
2016-06-10T09:20:43.598Z,36.66
2016-06-10T09:21:43.570Z,36.47
2016-06-10T09:22:43.557Z,37.05
2016-06-10T09:23:43.530Z,36.86
2016-06-10T09:24:43.611Z,36.08
2016-06-10T09:25:43.614Z,36.18
2016-06-10T09:26:43.445Z,36.66
2016-06-10T09:27:43.604Z,37.63
2016-06-10T09:28:43.575Z,37.73
2016-06-10T09:29:43.376Z,37.55
2016-06-10T09:30:43.363Z,37.46
2016-06-10T09:31:43.382Z,37.65
2016-06-10T09:32:43.448Z,37.75
2016-06-10T09:33:43.497Z,37.46
2016-06-10T09:34:43.750Z,37.65
2016-06-10T09:35:43.300Z,37.75
2016-06-10T09:36:43.241Z,37.85
2016-06-10T09:37:43.275Z,37.26
2016-06-10T09:38:43.294Z,37.36
2016-06-10T09:39:43.235Z,37.85
2016-06-10T09:40:46.269Z,37.07
2016-06-10T09:41:43.257Z,35.72
2016-06-10T09:42:43.291Z,36.49
2016-06-10T09:43:43.091Z,36.49
2016-06-10T09:44:43.125Z,35.72
2016-06-10T09:45:43.066Z,36.98
2016-06-10T09:46:43.100Z,36.4
2016-06-10T09:47:43.040Z,37.24
2016-06-10T09:48:43.029Z,36.68
2016-06-10T09:49:42.985Z,37.26
2016-06-10T09:50:42.987Z,36.98
2016-06-10T09:51:42.944Z,36.78
2016-06-10T09:52:42.963Z,36.78
2016-06-10T09:53:42.903Z,37.07
2016-06-10T09:54:42.890Z,37.26
2016-06-10T09:55:42.862Z,36.49
2016-06-10T09:56:42.850Z,36.1
2016-06-10T09:57:42.837Z,36.88
2016-06-10T09:58:42.824Z,36.49
2016-06-10T09:59:42.812Z,37.94
2016-06-10T10:00:42.768Z,37.26
2016-06-10T10:01:42.771Z,37.07
2016-06-10T10:02:42.774Z,37.26
2016-06-10T10:03:42.715Z,37.17
2016-06-10T10:04:42.703Z,37.19
2016-06-10T10:05:42.690Z,37.55
2016-06-10T10:06:42.818Z,37.07
2016-06-10T10:07:42.665Z,37.36
2016-06-10T10:08:42.777Z,36.98
2016-06-10T10:09:42.640Z,37.36
2016-06-10T10:10:42.596Z,37.75
2016-06-10T10:11:42.567Z,36.4
2016-06-10T10:12:42.399Z,37.07
2016-06-10T10:13:42.573Z,36.3
2016-06-10T10:14:42.514Z,37.46
2016-06-10T10:15:42.518Z,36.98
2016-06-10T10:16:42.582Z,37.46
2016-06-10T10:17:42.695Z,37.55
2016-06-10T10:18:42.448Z,37.55
2016-06-10T10:19:42.671Z,37.54
2016-06-10T10:20:42.424Z,37.24
2016-06-10T10:21:42.426Z,37.73
2016-06-10T10:22:42.367Z,38.12
2016-06-10T10:23:42.339Z,38.12
2016-06-10T10:24:42.326Z,37.54
2016-06-10T10:25:42.360Z,37.82
2016-06-10T10:26:42.285Z,37.05
2016-06-10T10:27:42.288Z,36.76
2016-06-10T10:28:42.244Z,37.73
2016-06-10T10:29:42.232Z,37.05
2016-06-10T10:30:42.063Z,37.44
2016-06-10T10:31:42.191Z,37.24
2016-06-10T10:32:42.178Z,37.54
2016-06-10T10:33:42.151Z,38.12
2016-06-10T10:34:42.217Z,37.52
2016-06-10T10:35:42.173Z,37.71
2016-06-10T10:36:42.113Z,37.42
2016-06-10T10:37:42.069Z,37.73
2016-06-10T10:38:41.900Z,37.73
2016-06-10T10:39:42.044Z,38.1
2016-06-10T10:40:42.032Z,37.71
2016-06-10T10:41:42.020Z,37.71
2016-06-10T10:42:42.117Z,36.74
2016-06-10T10:43:42.025Z,37.42
2016-06-10T10:44:41.951Z,37.42
2016-06-10T10:45:41.922Z,37.52
2016-06-10T10:46:41.924Z,37.62
2016-06-10T10:47:41.896Z,37.81
2016-06-10T10:48:41.868Z,38.58
2016-06-10T10:49:41.841Z,37.32
2016-06-10T10:50:41.859Z,37.62
2016-06-10T10:51:41.800Z,37.71
2016-06-10T10:52:41.818Z,37.71
2016-06-10T10:53:41.775Z,37.71
2016-06-10T10:54:41.746Z,37.62
2016-06-10T10:55:41.563Z,37.52
2016-06-10T10:56:41.581Z,37.9
2016-06-10T10:57:41.928Z,37.81
2016-06-10T10:58:41.509Z,36.94
2016-06-10T10:59:41.761Z,37.13
2016-06-10T11:00:41.639Z,37.42
2016-06-10T11:01:41.611Z,37.04
2016-06-10T11:02:41.599Z,37.81
2016-06-10T11:03:41.587Z,37.42
2016-06-10T11:04:41.574Z,37.32
2016-06-10T11:05:41.546Z,37.23
2016-06-10T11:06:41.518Z,37.42
2016-06-10T11:07:41.677Z,37.32
2016-06-10T11:08:41.602Z,36.26
2016-06-10T11:09:41.464Z,37.42
2016-06-10T11:10:41.453Z,37.23
2016-06-10T11:11:41.283Z,36.65
2016-06-10T11:12:41.427Z,38
2016-06-10T11:13:41.382Z,36.94
2016-06-10T11:14:41.354Z,37.42
2016-06-10T11:15:41.343Z,37.52
2016-06-10T11:16:41.361Z,37.13
2016-06-10T11:17:41.364Z,37.6
2016-06-10T11:18:41.289Z,37.52
2016-06-10T11:19:41.276Z,37.04
2016-06-10T11:20:41.265Z,37.52
2016-06-10T11:21:41.393Z,37.32
2016-06-10T11:22:41.239Z,36.36
2016-06-10T11:23:41.196Z,37.04
2016-06-10T11:24:41.182Z,37.52
2016-06-10T11:25:41.217Z,36.94
2016-06-10T11:26:41.142Z,37.42
2016-06-10T11:27:41.208Z,37.62
2016-06-10T11:28:41.086Z,37.23
2016-06-10T11:29:40.978Z,37.81
2016-06-10T11:30:41.248Z,37.52
2016-06-10T11:31:41.235Z,37.9
2016-06-10T11:32:41.254Z,37.32
2016-06-10T11:33:40.991Z,37.42
2016-06-10T11:34:41.041Z,37.71
2016-06-10T11:35:41.013Z,36.84
2016-06-10T11:36:41.094Z,37.42
2016-06-10T11:37:41.003Z,37.52
2016-06-10T11:38:41.054Z,37.04
2016-06-10T11:39:40.948Z,37.62
2016-06-10T11:40:41.028Z,37.71
2016-06-10T11:41:40.906Z,37.62
2016-06-10T11:42:40.972Z,37.9
2016-06-10T11:43:40.819Z,37.81
2016-06-10T11:44:40.845Z,38.29
2016-06-10T11:45:40.871Z,37.62
2016-06-10T11:46:40.914Z,38.58
2016-06-10T11:47:40.909Z,38.39
2016-06-10T11:48:40.910Z,36.26
2016-06-10T11:49:40.913Z,37.13
2016-06-10T11:50:40.898Z,37.79
2016-06-10T11:51:40.901Z,37.62
2016-06-10T11:52:40.886Z,37.71
2016-06-10T11:53:40.884Z,38.2
2016-06-10T11:54:40.876Z,38.1
2016-06-10T11:55:40.978Z,38.58
2016-06-10T11:56:40.690Z,37.52
2016-06-10T11:57:41.198Z,38.68
2016-06-10T11:58:41.127Z,37.52
2016-06-10T11:59:40.912Z,38.48
2016-06-10T12:00:40.777Z,38.58
2016-06-10T12:01:40.626Z,37.23
2016-06-10T12:02:40.881Z,37.23
2016-06-10T12:03:40.729Z,38.39
2016-06-10T12:04:40.810Z,37.71
2016-06-10T12:05:40.689Z,38.29
2016-06-10T12:06:40.661Z,37.81
2016-06-10T12:07:40.759Z,38.87
2016-06-10T12:08:40.668Z,37.9
2016-06-10T12:09:40.608Z,38.78
2016-06-10T12:10:40.597Z,37.81
2016-06-10T12:11:40.585Z,38.58
2016-06-10T12:12:41.494Z,38.39
2016-06-10T12:13:40.639Z,37.9
2016-06-10T12:14:43.657Z,38.48
2016-06-10T12:15:40.504Z,38.48
2016-06-10T12:16:40.473Z,37.52
2016-06-10T12:17:40.460Z,36.94
2016-06-10T12:18:40.448Z,37.6
2016-06-10T12:19:40.420Z,37.5
2016-06-10T12:20:40.532Z,37.5
2016-06-10T12:21:40.379Z,38.46
2016-06-10T12:22:40.366Z,38.56
2016-06-10T12:23:40.354Z,37.98
2016-06-10T12:24:40.326Z,38.46
2016-06-10T12:25:40.298Z,38.85
2016-06-10T12:26:40.331Z,38.46
2016-06-10T12:27:40.272Z,38.56
2016-06-10T12:28:40.260Z,38.85
2016-06-10T12:29:40.215Z,38.37
2016-06-10T12:30:40.266Z,38.18
2016-06-10T12:31:40.347Z,38.28
2016-06-10T12:32:40.006Z,37.5
2016-06-10T12:33:40.149Z,37.21
2016-06-10T12:34:40.138Z,37.98
2016-06-10T12:35:40.109Z,37.79
2016-06-10T12:36:40.206Z,37.7
2016-06-10T12:37:40.318Z,37.79
2016-06-10T12:38:40.056Z,37.88
2016-06-10T12:39:40.029Z,38.2
2016-06-10T12:40:40.046Z,37.71
2016-06-10T12:41:40.190Z,37.81
2016-06-10T12:42:40.880Z,37.9
2016-06-10T12:43:40.041Z,38.1
2016-06-10T12:44:39.934Z,38.48
2016-06-10T12:45:39.906Z,38.1
2016-06-10T12:46:39.893Z,37.32
2016-06-10T12:47:40.021Z,36.74
2016-06-10T12:48:39.915Z,38.46
2016-06-10T12:49:40.027Z,37.62
2016-06-10T12:50:40.077Z,38.2
2016-06-10T12:51:39.862Z,38.37
2016-06-10T12:52:39.989Z,38.46
2016-06-10T12:53:39.790Z,38.29
2016-06-10T12:54:39.995Z,38.66
2016-06-10T12:55:40.202Z,37.5
2016-06-10T12:56:39.939Z,37.98
2016-06-10T12:57:39.880Z,38.56
2016-06-10T12:58:39.805Z,38.56
2016-06-10T12:59:39.886Z,37.98
2016-06-10T13:00:39.858Z,38.08
2016-06-10T13:01:39.813Z,37.5
2016-06-10T13:02:39.552Z,37.5
2016-06-10T13:03:39.648Z,37.7
2016-06-10T13:04:39.792Z,38.28
2016-06-10T13:05:39.623Z,38.66
2016-06-10T13:06:39.689Z,37.98
2016-06-10T13:07:39.490Z,38.56
2016-06-10T13:08:39.460Z,38.87
2016-06-10T13:09:39.464Z,37.98
2016-06-10T13:10:39.498Z,38.76
2016-06-10T13:11:39.407Z,38.46
2016-06-10T13:12:39.426Z,38.37
2016-06-10T13:13:39.382Z,38.76
2016-06-10T13:14:39.370Z,38.48
2016-06-10T13:15:39.342Z,38.56
2016-06-10T13:16:39.345Z,37.79
2016-06-10T13:17:39.363Z,36.94
2016-06-10T13:18:39.273Z,38.56
2016-06-10T13:19:39.385Z,38.08
2016-06-10T13:20:39.232Z,38.56
2016-06-10T13:21:39.203Z,38.37
2016-06-10T13:22:39.254Z,38.48
2016-06-10T13:23:39.179Z,38.76
2016-06-10T13:24:39.151Z,37.79
2016-06-10T13:25:39.185Z,38.66
2016-06-10T13:26:39.126Z,38.85
2016-06-10T13:27:39.097Z,38.28
2016-06-10T13:28:39.085Z,38.76
2016-06-10T13:29:39.057Z,38.66
2016-06-10T13:30:39.044Z,38.46
2016-06-10T13:31:39.031Z,38.66
2016-06-10T13:32:39.003Z,38.76
2016-06-10T13:33:39.101Z,37.7
2016-06-10T13:34:39.073Z,38.28
2016-06-10T13:35:39.154Z,38.18
2016-06-10T13:36:38.968Z,37.98
2016-06-10T13:37:39.019Z,38.56
2016-06-10T13:38:39.100Z,38.18
2016-06-10T13:39:39.041Z,38.08
2016-06-10T13:40:45.312Z,38.85
2016-06-10T13:41:38.969Z,38.46
2016-06-10T13:42:38.893Z,38.18
2016-06-10T13:43:38.896Z,38.85
2016-06-10T13:44:38.899Z,38.2
2016-06-10T13:45:38.746Z,38.1
2016-06-10T13:46:38.749Z,38.85
2016-06-10T13:47:38.706Z,37.98
2016-06-10T13:48:38.693Z,38.18
2016-06-10T13:49:38.664Z,38.46
2016-06-10T13:50:38.652Z,37.6
2016-06-10T13:51:38.639Z,37.4
2016-06-10T13:52:38.611Z,37.5
2016-06-10T13:53:38.599Z,38.28
2016-06-10T13:54:38.571Z,38.66
2016-06-10T13:55:38.402Z,38.08
2016-06-10T13:56:38.530Z,37.98
2016-06-10T13:57:38.518Z,38.28
2016-06-10T13:58:38.505Z,38.08
2016-06-10T13:59:38.477Z,38.46
2016-06-10T14:00:38.448Z,38.95
2016-06-10T14:01:38.468Z,38.08
2016-06-10T14:02:38.268Z,38.37
2016-06-10T14:03:38.240Z,38.66
2016-06-10T14:04:38.383Z,37.98
2016-06-10T14:05:38.589Z,38.46
2016-06-10T14:06:38.342Z,38.56
2016-06-10T14:07:38.330Z,37.7
2016-06-10T14:08:38.302Z,38.37
2016-06-10T14:09:38.430Z,37.79
2016-06-10T14:10:38.292Z,36.82
2016-06-10T14:11:38.248Z,37.5
2016-06-10T14:12:38.220Z,37.3
2016-06-10T14:13:38.535Z,37.6
2016-06-10T14:14:38.195Z,38.28
2016-06-10T14:15:38.166Z,37.6
2016-06-10T14:16:38.232Z,37.81
2016-06-10T14:17:38.250Z,37.98
2016-06-10T14:18:38.113Z,37.98
2016-06-10T14:19:38.085Z,37.79
2016-06-10T14:20:38.073Z,38.18
2016-06-10T14:21:38.045Z,37.6
2016-06-10T14:22:38.032Z,37.81
2016-06-10T14:23:38.019Z,38.08
2016-06-10T14:24:38.069Z,37.79
2016-06-10T14:25:37.979Z,36.92
2016-06-10T14:26:37.950Z,37.12
2016-06-10T14:27:37.938Z,37.6
2016-06-10T14:28:38.066Z,37.7
2016-06-10T14:29:37.912Z,37.88
2016-06-10T14:30:37.869Z,38.18
2016-06-10T14:31:37.857Z,37.5
2016-06-10T14:32:37.829Z,37.79
2016-06-10T14:33:37.832Z,37.98
2016-06-10T14:34:37.788Z,37.79
2016-06-10T14:35:37.775Z,37.4
2016-06-10T14:36:37.809Z,37.79
2016-06-10T14:37:37.734Z,37.3
2016-06-10T14:38:37.722Z,37.5
2016-06-10T14:39:37.693Z,37.88
2016-06-10T14:40:37.681Z,37.71
2016-06-10T14:41:37.669Z,37.6
2016-06-10T14:42:37.719Z,37.4
2016-06-10T14:43:37.644Z,37.52
2016-06-10T14:44:37.631Z,36.65
2016-06-10T14:45:37.587Z,36.36
2016-06-10T14:46:37.575Z,36.34
2016-06-10T14:47:37.561Z,37.13
2016-06-10T14:48:37.534Z,36.94
2016-06-10T14:49:37.506Z,37.04
2016-06-10T14:50:37.493Z,36.84
2016-06-10T14:51:37.543Z,36.74
2016-06-10T14:52:37.515Z,36.84
2016-06-10T14:53:37.424Z,37.23
2016-06-10T14:54:37.458Z,37.04
2016-06-10T14:55:37.400Z,36.94
2016-06-10T14:56:37.371Z,37.04
2016-06-10T14:57:37.374Z,37.23
2016-06-10T14:58:37.361Z,36.84
2016-06-10T14:59:37.318Z,36.74
2016-06-10T15:00:37.290Z,36.84
2016-06-10T15:01:37.340Z,36.74
2016-06-10T15:02:37.280Z,36.55
2016-06-10T15:03:37.252Z,35.68
2016-06-10T15:04:37.224Z,36.65
2016-06-10T15:05:37.274Z,37.13
2016-06-10T15:06:37.214Z,36.94
2016-06-10T15:07:37.186Z,37.23
2016-06-10T15:08:37.204Z,36.74
2016-06-10T15:09:37.129Z,36.94
2016-06-10T15:10:37.117Z,37.04
2016-06-10T15:11:37.120Z,37.04
2016-06-10T15:12:37.077Z,36.94
2016-06-10T15:13:37.048Z,37.04
2016-06-10T15:14:37.098Z,37.04
2016-06-10T15:15:37.008Z,37.04
2016-06-10T15:16:36.995Z,37.04
2016-06-10T15:17:36.810Z,37.42
2016-06-10T15:18:36.954Z,37.23
2016-06-10T15:19:36.926Z,36.74
2016-06-10T15:20:36.913Z,36.55
2016-06-10T15:21:36.902Z,35.8
2016-06-10T15:22:36.872Z,35.97
2016-06-10T15:23:36.860Z,36.26
2016-06-10T15:24:36.847Z,36.65
2016-06-10T15:25:36.850Z,36.65
2016-06-10T15:26:36.807Z,37.05
2016-06-10T15:27:36.795Z,37.04
2016-06-10T15:28:36.766Z,36.57
2016-06-10T15:29:36.754Z,36.76
2016-06-10T15:30:36.725Z,37.04
2016-06-10T15:31:36.557Z,36.66
2016-06-10T15:32:36.685Z,37.13
2016-06-10T15:33:36.673Z,36.94
2016-06-10T15:34:36.644Z,36.55
2016-06-10T15:35:36.632Z,37.04
2016-06-10T15:36:36.618Z,36.74
2016-06-10T15:37:36.590Z,36.66
2016-06-10T15:38:36.578Z,36.84
2016-06-10T15:39:36.566Z,37.15
2016-06-10T15:40:36.537Z,35.78
2016-06-10T15:41:36.947Z,35.58
2016-06-10T15:42:36.497Z,36.36
2016-06-10T15:43:36.484Z,36.74
2016-06-10T15:44:36.456Z,36.74
2016-06-10T15:45:36.443Z,36.86
2016-06-10T15:46:36.431Z,36.36
2016-06-10T15:47:36.247Z,36.76
2016-06-10T15:48:36.391Z,36.65
2016-06-10T15:49:36.362Z,36.57
2016-06-10T15:50:36.350Z,37.24
2016-06-10T15:51:36.336Z,36.38
2016-06-10T15:52:36.309Z,36.47
2016-06-10T15:53:36.295Z,36.86
2016-06-10T15:54:36.268Z,36.38
2016-06-10T15:55:36.256Z,36.57
2016-06-10T15:56:36.321Z,36.76
2016-06-10T15:57:36.230Z,36.38
2016-06-10T15:58:36.202Z,36.47
2016-06-10T15:59:36.174Z,36.86
2016-06-10T16:00:36.162Z,36.08
2016-06-10T16:01:36.149Z,35.5
2016-06-10T16:02:36.120Z,35.89
2016-06-10T16:03:36.108Z,35.89
2016-06-10T16:04:36.095Z,36.28
2016-06-10T16:05:36.068Z,36.26
2016-06-10T16:06:36.054Z,36.74
2016-06-10T16:07:36.043Z,36.46
2016-06-10T16:08:35.999Z,36.16
2016-06-10T16:09:35.986Z,36.84
2016-06-10T16:10:35.973Z,36.55
2016-06-10T16:11:35.961Z,36.74
2016-06-10T16:12:35.933Z,36.84
2016-06-10T16:13:35.921Z,36.46
2016-06-10T16:14:35.892Z,36.36
2016-06-10T16:15:35.879Z,36.74
2016-06-10T16:16:35.851Z,37.23
2016-06-10T16:17:35.839Z,36.46
2016-06-10T16:18:35.826Z,36.84
2016-06-10T16:19:35.797Z,37.23
2016-06-10T16:20:35.785Z,36.46
2016-06-10T16:21:35.773Z,36.36
2016-06-10T16:22:35.760Z,36.74
2016-06-10T16:23:35.732Z,35.97
2016-06-10T16:24:35.704Z,35.78
2016-06-10T16:25:35.691Z,36.36
2016-06-10T16:26:35.522Z,36.26
2016-06-10T16:27:35.650Z,36.74
2016-06-10T16:28:35.638Z,36.94
2016-06-10T16:29:35.610Z,37.04
2016-06-10T16:30:35.597Z,36.74
2016-06-10T16:31:35.867Z,36.94
2016-06-10T16:32:35.557Z,37.42
2016-06-10T16:33:35.529Z,37.23
2016-06-10T16:34:35.360Z,37.23
2016-06-10T16:35:35.488Z,37.23
2016-06-10T16:36:35.475Z,37.04
2016-06-10T16:37:35.463Z,37.04
2016-06-10T16:38:35.450Z,37.23
2016-06-10T16:39:35.422Z,37.13
2016-06-10T16:40:35.394Z,37.04
2016-06-10T16:41:35.632Z,37.71
2016-06-10T16:42:36.196Z,37.52
2016-06-10T16:43:35.341Z,36.94
2016-06-10T16:44:35.328Z,37.04
2016-06-10T16:45:35.315Z,37.04
2016-06-10T16:46:35.288Z,37.23
2016-06-10T16:47:35.118Z,37.04
2016-06-10T16:48:35.278Z,37.04
2016-06-10T16:49:35.234Z,36.36
2016-06-10T16:50:35.221Z,36.36
2016-06-10T16:51:35.193Z,36.65
2016-06-10T16:52:35.181Z,36.46
2016-06-10T16:53:35.169Z,36.84
2016-06-10T16:54:35.141Z,37.13
2016-06-10T16:55:35.111Z,37.04
2016-06-10T16:56:35.115Z,37.23
2016-06-10T16:57:36.086Z,37.04
2016-06-10T16:58:34.902Z,37.42
2016-06-10T16:59:35.045Z,37.62
2016-06-10T17:00:35.034Z,37.04
2016-06-10T17:01:35.005Z,37.6
2016-06-10T17:02:34.977Z,37.32
2016-06-10T17:03:34.965Z,37.52
2016-06-10T17:04:34.952Z,37.02
2016-06-10T17:05:34.939Z,37.5
2016-06-10T17:06:34.786Z,37.4
2016-06-10T17:07:34.961Z,37.3
2016-06-10T17:08:34.870Z,37.5
2016-06-10T17:09:34.873Z,37.7
2016-06-10T17:10:34.923Z,37.79
2016-06-10T17:11:34.865Z,37.02
2016-06-10T17:12:34.804Z,37.5
2016-06-10T17:13:34.808Z,37.4
2016-06-10T17:14:34.795Z,37.12
2016-06-10T17:15:34.736Z,37.3
2016-06-10T17:16:34.770Z,37.5
2016-06-10T17:17:34.695Z,36.82
2016-06-10T17:18:34.682Z,37.32
2016-06-10T17:19:34.670Z,37.12
2016-06-10T17:20:34.642Z,36.36
2016-06-10T17:21:34.614Z,35.97
2016-06-10T17:22:34.601Z,36.55
2016-06-10T17:23:34.589Z,36.55
2016-06-10T17:24:34.561Z,37.12
2016-06-10T17:25:34.547Z,36.84
2016-06-10T17:26:34.535Z,37.04
2016-06-10T17:27:34.506Z,36.94
2016-06-10T17:28:34.495Z,36.34
2016-06-10T17:29:34.465Z,36.92
2016-06-10T17:30:34.454Z,37.12
2016-06-10T17:31:34.441Z,36.92
2016-06-10T17:32:34.413Z,36.82
2016-06-10T17:33:34.401Z,37.04
2016-06-10T17:34:34.372Z,37.02
2016-06-10T17:35:34.359Z,36.63
2016-06-10T17:36:34.347Z,37.02
2016-06-10T17:37:34.319Z,37.02
2016-06-10T17:38:34.290Z,36.46
2016-06-10T17:39:34.279Z,36.82
2016-06-10T17:40:34.282Z,36.82
2016-06-10T17:41:34.253Z,36.82
2016-06-10T17:42:34.224Z,36.82
2016-06-10T17:43:34.197Z,37.12
2016-06-10T17:44:34.184Z,36.63
2016-06-10T17:45:34.172Z,36.34
2016-06-10T17:46:34.143Z,36.53
2016-06-10T17:47:34.132Z,36.84
2016-06-10T17:48:34.118Z,36.84
2016-06-10T17:49:34.090Z,36.26
2016-06-10T17:50:34.062Z,35.97
2016-06-10T17:51:34.050Z,35.68
2016-06-10T17:52:34.036Z,36.34
2016-06-10T17:53:34.040Z,36.36
2016-06-10T17:54:33.996Z,36.36
2016-06-10T17:55:33.983Z,36.46
2016-06-10T17:56:33.956Z,36.26
2016-06-10T17:57:34.427Z,36.26
2016-06-10T17:58:33.915Z,36.46
2016-06-10T17:59:33.902Z,36.46
2016-06-10T18:00:33.891Z,36.65
2016-06-10T18:01:33.861Z,36.74
2016-06-10T18:02:33.849Z,36.74
2016-06-10T18:03:33.821Z,36.46
2016-06-10T18:04:33.808Z,36.55
2016-06-10T18:05:33.780Z,36.65
2016-06-10T18:06:33.768Z,36.84
2016-06-10T18:07:33.754Z,36.46
2016-06-10T18:08:33.727Z,36.26
2016-06-10T18:09:33.714Z,36.55
2016-06-10T18:10:33.702Z,36.74
2016-06-10T18:11:33.674Z,36.74
2016-06-10T18:12:34.098Z,36.36
2016-06-10T18:13:33.633Z,36.84
2016-06-10T18:14:33.605Z,36.65
2016-06-10T18:15:33.592Z,36.84
2016-06-10T18:16:33.579Z,36.65
2016-06-10T18:17:33.551Z,36.74
2016-06-10T18:18:33.539Z,36.55
2016-06-10T18:19:33.510Z,36.74
2016-06-10T18:20:33.498Z,36.46
2016-06-10T18:21:33.485Z,36.55
2016-06-10T18:22:33.457Z,36.74
2016-06-10T18:23:33.445Z,36.26
2016-06-10T18:24:33.432Z,36.26
2016-06-10T18:25:33.404Z,36.46
2016-06-10T18:26:33.391Z,36.65
2016-06-10T18:27:33.379Z,36.46
2016-06-10T18:28:33.351Z,36.36
2016-06-10T18:29:33.338Z,36.55
2016-06-10T18:30:33.310Z,36.65
2016-06-10T18:31:33.297Z,36.36
2016-06-10T18:32:33.285Z,36.26
2016-06-10T18:33:33.257Z,36.07
2016-06-10T18:34:33.245Z,36.26
2016-06-10T18:35:33.216Z,36.26
2016-06-10T18:36:33.203Z,36.07
2016-06-10T18:37:33.175Z,35.97
2016-06-10T18:38:33.163Z,36.16
2016-06-10T18:39:33.135Z,36.07
2016-06-10T18:40:33.122Z,36.16
2016-06-10T18:41:33.094Z,36.07
2016-06-10T18:42:34.269Z,36.26
2016-06-10T18:43:33.068Z,36.36
2016-06-10T18:44:33.041Z,36.26
2016-06-10T18:45:33.029Z,36.36
2016-06-10T18:46:33.031Z,36.46
2016-06-10T18:47:32.988Z,36.46
2016-06-10T18:48:32.974Z,36.74
2016-06-10T18:49:32.947Z,36.16
2016-06-10T18:50:32.934Z,36.65
2016-06-10T18:51:32.922Z,36.36
2016-06-10T18:52:32.893Z,36.36
2016-06-10T18:53:32.881Z,36.46
2016-06-10T18:54:32.853Z,36.65
2016-06-10T18:55:32.840Z,36.55
2016-06-10T18:56:32.827Z,36.46
2016-06-10T18:57:32.799Z,36.36
2016-06-10T18:58:32.787Z,36.65
2016-06-10T18:59:32.758Z,36.65
2016-06-10T19:00:32.746Z,36.46
2016-06-10T19:01:32.734Z,36.74
2016-06-10T19:02:32.705Z,36.74
2016-06-10T19:03:32.692Z,36.36
2016-06-10T19:04:32.665Z,36.46
2016-06-10T19:05:32.652Z,36.65
2016-06-10T19:06:32.639Z,36.84
2016-06-10T19:07:32.611Z,36.55
2016-06-10T19:08:32.599Z,36.26
2016-06-10T19:09:32.570Z,36.46
2016-06-10T19:10:32.558Z,36.65
2016-06-10T19:11:32.545Z,36.84
2016-06-10T19:12:32.721Z,36.94
2016-06-10T19:13:32.520Z,36.46
2016-06-10T19:14:32.476Z,36.46
2016-06-10T19:15:32.464Z,36.16
2016-06-10T19:16:32.436Z,36.07
2016-06-10T19:17:32.423Z,36.16
2016-06-10T19:18:32.395Z,36.26
2016-06-10T19:19:32.383Z,36.46
2016-06-10T19:20:32.370Z,36.26
2016-06-10T19:21:32.342Z,36.36
2016-06-10T19:22:32.329Z,36.65
2016-06-10T19:23:32.301Z,36.84
2016-06-10T19:24:32.288Z,36.84
2016-06-10T19:25:32.277Z,36.36
2016-06-10T19:26:32.248Z,36.36
2016-06-10T19:27:32.953Z,36.74
2016-06-10T19:28:32.222Z,36.74
2016-06-10T19:29:32.195Z,36.74
2016-06-10T19:30:32.167Z,36.55
2016-06-10T19:31:31.998Z,36.74
2016-06-10T19:32:32.141Z,37.04
2016-06-10T19:33:32.113Z,36.65
2016-06-10T19:34:32.100Z,36.46
2016-06-10T19:35:32.072Z,36.74
2016-06-10T19:36:32.060Z,36.84
2016-06-10T19:37:32.047Z,36.74
2016-06-10T19:38:32.020Z,36.55
2016-06-10T19:39:31.990Z,36.55
2016-06-10T19:40:31.994Z,36.74
2016-06-10T19:41:31.965Z,37.04
2016-06-10T19:42:31.937Z,36.55
2016-06-10T19:43:31.925Z,36.36
2016-06-10T19:44:31.913Z,36.55
2016-06-10T19:45:31.899Z,36.65
2016-06-10T19:46:31.872Z,36.74
2016-06-10T19:47:31.859Z,36.74
2016-06-10T19:48:31.831Z,36.74
2016-06-10T19:49:31.818Z,36.46
2016-06-10T19:50:31.790Z,36.55
2016-06-10T19:51:31.777Z,36.74
2016-06-10T19:52:31.750Z,36.84
2016-06-10T19:53:31.737Z,36.74
2016-06-10T19:54:31.725Z,36.84
2016-06-10T19:55:31.697Z,37.04
2016-06-10T19:56:31.683Z,36.74
2016-06-10T19:57:31.687Z,36.46
2016-06-10T19:58:31.642Z,36.55
2016-06-10T19:59:31.912Z,36.74
2016-06-10T20:00:31.867Z,36.65
2016-06-10T20:01:31.574Z,36.74
2016-06-10T20:02:31.562Z,36.74
2016-06-10T20:03:31.533Z,36.74
2016-06-10T20:04:31.522Z,36.84
2016-06-10T20:05:31.492Z,36.84
2016-06-10T20:06:31.480Z,36.74
2016-06-10T20:07:31.468Z,36.84
2016-06-10T20:08:31.439Z,36.94
2016-06-10T20:09:31.427Z,36.65
2016-06-10T20:10:31.398Z,36.36
2016-06-10T20:11:31.386Z,36.16
2016-06-10T20:12:31.389Z,36.16
2016-06-10T20:13:31.361Z,36.07
2016-06-10T20:14:31.333Z,36.07
2016-06-10T20:15:31.305Z,36.16
2016-06-10T20:16:31.292Z,36.07
2016-06-10T20:17:31.280Z,36.16
2016-06-10T20:18:31.267Z,36.16
2016-06-10T20:19:31.239Z,36.26
2016-06-10T20:20:31.226Z,36.16
2016-06-10T20:21:31.199Z,36.26
2016-06-10T20:22:31.186Z,36.36
2016-06-10T20:23:31.157Z,36.16
2016-06-10T20:24:31.145Z,36.26
2016-06-10T20:25:31.116Z,36.46
2016-06-10T20:26:31.104Z,36.26
2016-06-10T20:27:31.092Z,36.46
2016-06-10T20:28:31.079Z,36.46
2016-06-10T20:29:31.051Z,36.46
2016-06-10T20:30:31.038Z,36.46
2016-06-10T20:31:31.010Z,36.36
2016-06-10T20:32:30.998Z,36.74
2016-06-10T20:33:30.969Z,36.74
2016-06-10T20:34:30.957Z,36.74
2016-06-10T20:35:30.928Z,36.36
2016-06-10T20:36:30.915Z,36.46
2016-06-10T20:37:30.903Z,36.46
2016-06-10T20:38:30.876Z,36.65
2016-06-10T20:39:30.863Z,36.74
2016-06-10T20:40:30.835Z,36.74
2016-06-10T20:41:30.821Z,36.84
2016-06-10T20:42:30.809Z,36.36
2016-06-10T20:43:30.844Z,36.16
2016-06-10T20:44:30.769Z,36.55
2016-06-10T20:45:30.740Z,36.65
2016-06-10T20:46:30.728Z,36.65
2016-06-10T20:47:30.699Z,36.94
2016-06-10T20:48:30.672Z,36.55
2016-06-10T20:49:30.659Z,36.46
2016-06-10T20:50:30.672Z,36.55
2016-06-10T20:51:30.684Z,36.74
2016-06-10T20:52:30.711Z,36.94
2016-06-10T20:53:30.723Z,36.65
2016-06-10T20:54:30.750Z,36.46
2016-06-10T20:55:30.746Z,36.36
2016-06-10T20:56:30.747Z,36.55
2016-06-10T20:57:30.749Z,36.36
2016-06-10T20:58:31.376Z,36.16
2016-06-10T20:59:30.737Z,36.16
2016-06-10T21:00:30.718Z,36.07
2016-06-10T21:01:30.725Z,36.26
2016-06-10T21:02:30.701Z,36.46
2016-06-10T21:03:30.695Z,36.55
2016-06-10T21:04:30.670Z,36.36
2016-06-10T21:05:30.646Z,36.46
2016-06-10T21:06:30.635Z,36.65
2016-06-10T21:07:30.625Z,36.36
2016-06-10T21:08:30.614Z,36.16
2016-06-10T21:09:30.588Z,36.16
2016-06-10T21:10:30.576Z,36.46
2016-06-10T21:11:30.548Z,36.36
2016-06-10T21:12:30.538Z,36.55
2016-06-10T21:13:30.885Z,36.36
2016-06-10T21:14:30.498Z,36.46
2016-06-10T21:15:30.485Z,36.55
2016-06-10T21:16:30.473Z,36.55
2016-06-10T21:17:30.445Z,36.55
2016-06-10T21:18:30.418Z,36.65
2016-06-10T21:19:30.406Z,36.74
2016-06-10T21:20:30.394Z,36.74
2016-06-10T21:21:30.365Z,36.65